sensor_id;sensor_type;location;lat;lon;timestamp;pressure;altitude;pressure_sealevel;temperature;humidity
59831;BME280;45711;50.108;13.712;2022-09-14T00:01:51;97125.22;;;16.49;83.17
59831;BME280;45711;50.108;13.712;2022-09-14T00:04:18;97130.88;;;16.56;84.31
59831;BME280;45711;50.108;13.712;2022-09-14T00:06:44;97141.66;;;16.44;84.93
59831;BME280;45711;50.108;13.712;2022-09-14T00:09:13;97140.75;;;16.40;86.33
59831;BME280;45711;50.108;13.712;2022-09-14T00:11:39;97129.59;;;16.41;84.97
59831;BME280;45711;50.108;13.712;2022-09-14T00:14:06;97130.19;;;16.47;84.91
59831;BME280;45711;50.108;13.712;2022-09-14T00:16:34;97134.88;;;16.50;84.90
59831;BME280;45711;50.108;13.712;2022-09-14T00:19:05;97141.31;;;16.33;85.98
59831;BME280;45711;50.108;13.712;2022-09-14T00:21:32;97133.19;;;16.45;87.28
59831;BME280;45711;50.108;13.712;2022-09-14T00:23:58;97127.59;;;16.50;85.99
59831;BME280;45711;50.108;13.712;2022-09-14T00:26:24;97142.41;;;16.32;86.73
59831;BME280;45711;50.108;13.712;2022-09-14T00:28:54;97128.16;;;16.11;86.84
59831;BME280;45711;50.108;13.712;2022-09-14T00:31:21;97123.69;;;16.15;87.86
59831;BME280;45711;50.108;13.712;2022-09-14T00:33:47;97119.53;;;16.17;87.46
59831;BME280;45711;50.108;13.712;2022-09-14T00:36:16;97112.69;;;16.20;87.74
59831;BME280;45711;50.108;13.712;2022-09-14T00:38:43;97113.00;;;16.18;88.33
59831;BME280;45711;50.108;13.712;2022-09-14T00:41:11;97117.13;;;16.49;85.22
59831;BME280;45711;50.108;13.712;2022-09-14T00:43:51;97115.00;;;16.42;85.76
59831;BME280;45711;50.108;13.712;2022-09-14T00:46:16;97116.69;;;16.47;87.22
59831;BME280;45711;50.108;13.712;2022-09-14T00:48:42;97109.00;;;16.49;86.63
59831;BME280;45711;50.108;13.712;2022-09-14T00:51:08;97094.59;;;16.45;86.60
59831;BME280;45711;50.108;13.712;2022-09-14T00:53:35;97109.38;;;16.59;86.55
59831;BME280;45711;50.108;13.712;2022-09-14T00:56:01;97121.84;;;16.40;88.22
59831;BME280;45711;50.108;13.712;2022-09-14T00:58:27;97116.53;;;16.31;88.60
59831;BME280;45711;50.108;13.712;2022-09-14T01:00:52;97118.47;;;16.43;88.32
59831;BME280;45711;50.108;13.712;2022-09-14T01:03:19;97106.53;;;16.44;87.44
59831;BME280;45711;50.108;13.712;2022-09-14T01:05:53;97096.72;;;16.27;88.86
59831;BME280;45711;50.108;13.712;2022-09-14T01:11:41;97096.59;;;16.23;88.70
59831;BME280;45711;50.108;13.712;2022-09-14T01:14:15;97092.91;;;16.28;88.67
59831;BME280;45711;50.108;13.712;2022-09-14T01:16:46;97093.47;;;16.21;89.00
59831;BME280;45711;50.108;13.712;2022-09-14T01:19:27;97095.50;;;16.24;88.67
59831;BME280;45711;50.108;13.712;2022-09-14T01:22:00;97095.81;;;16.23;88.38
59831;BME280;45711;50.108;13.712;2022-09-14T01:24:38;97096.59;;;16.23;88.14
59831;BME280;45711;50.108;13.712;2022-09-14T01:27:24;97099.09;;;16.28;88.95
59831;BME280;45711;50.108;13.712;2022-09-14T01:29:56;97104.88;;;16.51;88.81
59831;BME280;45711;50.108;13.712;2022-09-14T01:32:29;97103.03;;;16.31;89.56
59831;BME280;45711;50.108;13.712;2022-09-14T01:35:03;97090.00;;;16.45;88.52
59831;BME280;45711;50.108;13.712;2022-09-14T01:37:32;97081.53;;;16.22;89.90
59831;BME280;45711;50.108;13.712;2022-09-14T01:40:06;97072.56;;;16.30;88.46
59831;BME280;45711;50.108;13.712;2022-09-14T01:42:37;97059.94;;;16.22;91.12
59831;BME280;45711;50.108;13.712;2022-09-14T01:45:08;97047.44;;;16.18;90.63
59831;BME280;45711;50.108;13.712;2022-09-14T01:47:38;97031.69;;;16.07;90.94
59831;BME280;45711;50.108;13.712;2022-09-14T01:50:08;97025.97;;;16.21;90.27
59831;BME280;45711;50.108;13.712;2022-09-14T01:52:40;97038.25;;;16.55;89.96
59831;BME280;45711;50.108;13.712;2022-09-14T01:55:10;97027.56;;;16.34;90.88
59831;BME280;45711;50.108;13.712;2022-09-14T01:57:41;97029.69;;;16.41;90.13
59831;BME280;45711;50.108;13.712;2022-09-14T02:00:11;97048.16;;;16.39;90.63
59831;BME280;45711;50.108;13.712;2022-09-14T02:02:45;97059.63;;;16.24;91.15
59831;BME280;45711;50.108;13.712;2022-09-14T02:05:18;97063.78;;;16.21;91.36
59831;BME280;45711;50.108;13.712;2022-09-14T02:07:48;97062.06;;;16.17;91.57
59831;BME280;45711;50.108;13.712;2022-09-14T02:10:15;97068.13;;;16.14;92.32
59831;BME280;45711;50.108;13.712;2022-09-14T02:12:43;97075.03;;;16.36;91.60
59831;BME280;45711;50.108;13.712;2022-09-14T02:15:10;97069.28;;;16.25;90.97
59831;BME280;45711;50.108;13.712;2022-09-14T02:17:37;97073.09;;;16.12;92.22
59831;BME280;45711;50.108;13.712;2022-09-14T02:20:05;97067.09;;;16.06;92.31
59831;BME280;45711;50.108;13.712;2022-09-14T02:22:32;97071.72;;;16.05;92.77
59831;BME280;45711;50.108;13.712;2022-09-14T02:24:59;97067.22;;;16.09;92.04
59831;BME280;45711;50.108;13.712;2022-09-14T02:27:25;97075.09;;;16.15;90.92
59831;BME280;45711;50.108;13.712;2022-09-14T02:29:52;97072.41;;;16.15;91.29
59831;BME280;45711;50.108;13.712;2022-09-14T02:32:24;97066.41;;;15.97;92.16
59831;BME280;45711;50.108;13.712;2022-09-14T02:34:56;97054.28;;;16.03;91.74
59831;BME280;45711;50.108;13.712;2022-09-14T02:37:32;97053.16;;;16.04;92.08
59831;BME280;45711;50.108;13.712;2022-09-14T02:40:16;97052.72;;;16.14;92.41
59831;BME280;45711;50.108;13.712;2022-09-14T02:42:52;97052.59;;;16.11;92.38
59831;BME280;45711;50.108;13.712;2022-09-14T02:45:28;97061.53;;;16.48;90.02
59831;BME280;45711;50.108;13.712;2022-09-14T02:48:02;97077.41;;;16.62;87.71
59831;BME280;45711;50.108;13.712;2022-09-14T02:50:35;97063.94;;;16.86;85.51
59831;BME280;45711;50.108;13.712;2022-09-14T02:53:08;97053.31;;;16.32;89.22
59831;BME280;45711;50.108;13.712;2022-09-14T02:55:40;97044.09;;;16.21;90.95
59831;BME280;45711;50.108;13.712;2022-09-14T02:58:08;97051.16;;;16.13;90.47
59831;BME280;45711;50.108;13.712;2022-09-14T03:00:42;97048.13;;;16.15;91.68
59831;BME280;45711;50.108;13.712;2022-09-14T03:03:09;97035.88;;;16.17;90.70
59831;BME280;45711;50.108;13.712;2022-09-14T03:05:35;97040.38;;;16.25;89.62
59831;BME280;45711;50.108;13.712;2022-09-14T03:08:02;97049.38;;;16.29;90.75
59831;BME280;45711;50.108;13.712;2022-09-14T03:10:28;97038.66;;;16.08;90.79
59831;BME280;45711;50.108;13.712;2022-09-14T03:12:55;97033.59;;;16.19;90.27
59831;BME280;45711;50.108;13.712;2022-09-14T03:15:21;97038.47;;;16.38;87.54
59831;BME280;45711;50.108;13.712;2022-09-14T03:17:50;97035.78;;;16.38;90.27
59831;BME280;45711;50.108;13.712;2022-09-14T03:20:18;97034.66;;;16.39;88.91
59831;BME280;45711;50.108;13.712;2022-09-14T03:22:48;97025.19;;;16.21;90.59
59831;BME280;45711;50.108;13.712;2022-09-14T03:25:14;97010.13;;;16.56;89.12
59831;BME280;45711;50.108;13.712;2022-09-14T03:27:40;97014.97;;;16.39;87.79
59831;BME280;45711;50.108;13.712;2022-09-14T03:30:07;97026.66;;;16.79;86.38
59831;BME280;45711;50.108;13.712;2022-09-14T03:32:33;97015.88;;;16.55;87.63
59831;BME280;45711;50.108;13.712;2022-09-14T03:35:00;97028.69;;;16.46;88.37
59831;BME280;45711;50.108;13.712;2022-09-14T03:37:26;97011.91;;;16.40;89.27
59831;BME280;45711;50.108;13.712;2022-09-14T03:39:52;97017.19;;;16.37;89.70
59831;BME280;45711;50.108;13.712;2022-09-14T03:42:17;97004.84;;;16.36;88.57
59831;BME280;45711;50.108;13.712;2022-09-14T03:44:43;97013.03;;;16.39;88.58
59831;BME280;45711;50.108;13.712;2022-09-14T03:47:08;97006.84;;;16.26;90.69
59831;BME280;45711;50.108;13.712;2022-09-14T03:49:34;97001.47;;;16.26;91.05
59831;BME280;45711;50.108;13.712;2022-09-14T03:52:01;97003.72;;;16.24;90.77
59831;BME280;45711;50.108;13.712;2022-09-14T03:54:28;96997.66;;;16.15;90.90
59831;BME280;45711;50.108;13.712;2022-09-14T03:56:53;96987.19;;;16.26;91.05
59831;BME280;45711;50.108;13.712;2022-09-14T03:59:19;96987.84;;;16.35;90.93
59831;BME280;45711;50.108;13.712;2022-09-14T04:01:45;96982.31;;;16.19;91.48
59831;BME280;45711;50.108;13.712;2022-09-14T04:04:11;96976.72;;;16.12;91.99
59831;BME280;45711;50.108;13.712;2022-09-14T04:06:37;96981.53;;;16.19;91.52
59831;BME280;45711;50.108;13.712;2022-09-14T04:09:05;96970.97;;;16.14;91.90
59831;BME280;45711;50.108;13.712;2022-09-14T04:11:31;96972.53;;;16.15;91.38
59831;BME280;45711;50.108;13.712;2022-09-14T04:14:00;96967.25;;;16.06;91.46
59831;BME280;45711;50.108;13.712;2022-09-14T04:16:26;96953.75;;;16.06;92.58
59831;BME280;45711;50.108;13.712;2022-09-14T04:18:53;96955.00;;;16.21;91.27
59831;BME280;45711;50.108;13.712;2022-09-14T04:21:20;96955.44;;;16.23;92.12
59831;BME280;45711;50.108;13.712;2022-09-14T04:23:47;96967.63;;;16.29;91.01
59831;BME280;45711;50.108;13.712;2022-09-14T04:26:17;96958.16;;;16.11;91.63
59831;BME280;45711;50.108;13.712;2022-09-14T04:28:43;96955.13;;;16.12;92.53
59831;BME280;45711;50.108;13.712;2022-09-14T04:31:10;96959.28;;;16.09;92.65
59831;BME280;45711;50.108;13.712;2022-09-14T04:33:37;96964.56;;;16.18;92.64
59831;BME280;45711;50.108;13.712;2022-09-14T04:36:04;96963.34;;;16.16;93.39
59831;BME280;45711;50.108;13.712;2022-09-14T04:38:31;96958.72;;;16.16;93.63
59831;BME280;45711;50.108;13.712;2022-09-14T04:40:57;96958.63;;;16.13;93.78
59831;BME280;45711;50.108;13.712;2022-09-14T04:43:25;96963.22;;;16.12;93.75
59831;BME280;45711;50.108;13.712;2022-09-14T04:45:51;96959.50;;;16.04;93.40
59831;BME280;45711;50.108;13.712;2022-09-14T04:48:17;96952.97;;;16.05;93.40
59831;BME280;45711;50.108;13.712;2022-09-14T04:50:43;96951.19;;;16.09;93.06
59831;BME280;45711;50.108;13.712;2022-09-14T04:53:09;96938.03;;;16.20;92.78
59831;BME280;45711;50.108;13.712;2022-09-14T04:55:35;96943.88;;;16.22;92.55
59831;BME280;45711;50.108;13.712;2022-09-14T04:58:01;96943.75;;;16.19;92.68
59831;BME280;45711;50.108;13.712;2022-09-14T05:00:28;96939.84;;;16.16;93.23
59831;BME280;45711;50.108;13.712;2022-09-14T05:02:53;96945.44;;;16.23;92.74
59831;BME280;45711;50.108;13.712;2022-09-14T05:05:19;96944.88;;;16.18;93.39
59831;BME280;45711;50.108;13.712;2022-09-14T05:07:44;96949.06;;;16.15;93.04
59831;BME280;45711;50.108;13.712;2022-09-14T05:10:13;96955.56;;;16.14;92.84
59831;BME280;45711;50.108;13.712;2022-09-14T05:12:38;96953.88;;;16.22;94.35
59831;BME280;45711;50.108;13.712;2022-09-14T05:15:05;96960.28;;;16.17;93.76
59831;BME280;45711;50.108;13.712;2022-09-14T05:17:34;96959.28;;;16.09;93.82
59831;BME280;45711;50.108;13.712;2022-09-14T05:19:59;96964.25;;;16.20;94.20
59831;BME280;45711;50.108;13.712;2022-09-14T05:22:25;96970.88;;;16.22;94.06
59831;BME280;45711;50.108;13.712;2022-09-14T05:24:51;96972.31;;;16.32;94.61
59831;BME280;45711;50.108;13.712;2022-09-14T05:27:16;96981.53;;;16.31;94.95
59831;BME280;45711;50.108;13.712;2022-09-14T05:29:42;96975.91;;;16.48;93.19
59831;BME280;45711;50.108;13.712;2022-09-14T05:32:08;96981.78;;;16.38;93.56
59831;BME280;45711;50.108;13.712;2022-09-14T05:34:35;96993.72;;;16.37;94.29
59831;BME280;45711;50.108;13.712;2022-09-14T05:37:01;96982.13;;;16.24;94.19
59831;BME280;45711;50.108;13.712;2022-09-14T05:39:26;96987.28;;;16.17;95.18
59831;BME280;45711;50.108;13.712;2022-09-14T05:41:52;96995.38;;;16.17;94.90
59831;BME280;45711;50.108;13.712;2022-09-14T05:44:17;96994.25;;;16.18;95.04
59831;BME280;45711;50.108;13.712;2022-09-14T05:46:43;96992.47;;;16.34;95.43
59831;BME280;45711;50.108;13.712;2022-09-14T05:49:08;96987.97;;;16.26;95.17
59831;BME280;45711;50.108;13.712;2022-09-14T05:51:35;96988.72;;;16.15;93.45
59831;BME280;45711;50.108;13.712;2022-09-14T05:54:01;96985.03;;;16.19;93.64
59831;BME280;45711;50.108;13.712;2022-09-14T05:56:33;96986.84;;;16.03;94.68
59831;BME280;45711;50.108;13.712;2022-09-14T05:58:59;96985.94;;;16.11;94.98
59831;BME280;45711;50.108;13.712;2022-09-14T06:01:26;96976.72;;;16.24;93.27
59831;BME280;45711;50.108;13.712;2022-09-14T06:03:53;96982.09;;;16.49;92.45
59831;BME280;45711;50.108;13.712;2022-09-14T06:06:19;96975.91;;;16.36;92.97
59831;BME280;45711;50.108;13.712;2022-09-14T06:08:48;96976.47;;;16.54;93.24
59831;BME280;45711;50.108;13.712;2022-09-14T06:11:18;96971.75;;;16.51;91.95
59831;BME280;45711;50.108;13.712;2022-09-14T06:13:44;96962.94;;;16.66;93.45
59831;BME280;45711;50.108;13.712;2022-09-14T06:16:13;96955.31;;;16.56;93.80
59831;BME280;45711;50.108;13.712;2022-09-14T06:18:41;96955.78;;;16.46;95.74
59831;BME280;45711;50.108;13.712;2022-09-14T06:21:08;96951.06;;;16.43;92.74
59831;BME280;45711;50.108;13.712;2022-09-14T06:23:35;96947.88;;;16.65;91.66
59831;BME280;45711;50.108;13.712;2022-09-14T06:26:03;96946.50;;;16.71;91.29
59831;BME280;45711;50.108;13.712;2022-09-14T06:28:29;96939.91;;;16.56;92.36
59831;BME280;45711;50.108;13.712;2022-09-14T06:30:56;96945.53;;;16.64;90.62
59831;BME280;45711;50.108;13.712;2022-09-14T06:33:22;96937.09;;;16.53;93.41
59831;BME280;45711;50.108;13.712;2022-09-14T06:35:54;96932.00;;;16.64;93.91
59831;BME280;45711;50.108;13.712;2022-09-14T06:38:20;96931.78;;;16.69;91.93
59831;BME280;45711;50.108;13.712;2022-09-14T06:40:51;96925.59;;;16.56;93.24
59831;BME280;45711;50.108;13.712;2022-09-14T06:43:19;96930.41;;;16.63;91.80
59831;BME280;45711;50.108;13.712;2022-09-14T06:45:54;96923.22;;;16.67;92.15
59831;BME280;45711;50.108;13.712;2022-09-14T06:48:19;96917.88;;;16.95;89.25
59831;BME280;45711;50.108;13.712;2022-09-14T06:50:45;96917.03;;;16.78;91.50
59831;BME280;45711;50.108;13.712;2022-09-14T06:53:10;96915.22;;;16.82;92.14
59831;BME280;45711;50.108;13.712;2022-09-14T06:55:36;96919.94;;;16.86;92.41
59831;BME280;45711;50.108;13.712;2022-09-14T06:58:01;96921.75;;;16.81;91.04
59831;BME280;45711;50.108;13.712;2022-09-14T07:00:28;96921.75;;;16.81;92.45
59831;BME280;45711;50.108;13.712;2022-09-14T07:02:54;96929.59;;;16.87;91.85
59831;BME280;45711;50.108;13.712;2022-09-14T07:05:20;96924.44;;;16.81;92.38
59831;BME280;45711;50.108;13.712;2022-09-14T07:07:49;96926.50;;;16.72;92.47
59831;BME280;45711;50.108;13.712;2022-09-14T07:10:15;96923.22;;;16.79;91.00
59831;BME280;45711;50.108;13.712;2022-09-14T07:12:41;96925.38;;;16.73;91.38
59831;BME280;45711;50.108;13.712;2022-09-14T07:15:07;96930.28;;;16.71;90.76
59831;BME280;45711;50.108;13.712;2022-09-14T07:17:34;96925.63;;;16.44;93.41
59831;BME280;45711;50.108;13.712;2022-09-14T07:20:01;96919.41;;;16.68;92.22
59831;BME280;45711;50.108;13.712;2022-09-14T07:22:26;96924.88;;;16.83;90.90
59831;BME280;45711;50.108;13.712;2022-09-14T07:24:52;96922.19;;;16.83;92.00
59831;BME280;45711;50.108;13.712;2022-09-14T07:27:17;96932.31;;;16.87;91.59
59831;BME280;45711;50.108;13.712;2022-09-14T07:29:43;96927.28;;;17.01;91.74
59831;BME280;45711;50.108;13.712;2022-09-14T07:32:09;96938.09;;;16.73;93.14
59831;BME280;45711;50.108;13.712;2022-09-14T07:34:35;96930.16;;;16.92;94.38
59831;BME280;45711;50.108;13.712;2022-09-14T07:37:01;96938.47;;;16.99;92.95
59831;BME280;45711;50.108;13.712;2022-09-14T07:39:27;96935.31;;;16.97;89.30
59831;BME280;45711;50.108;13.712;2022-09-14T07:41:52;96935.00;;;16.87;91.78
59831;BME280;45711;50.108;13.712;2022-09-14T07:44:18;96939.66;;;16.74;91.17
59831;BME280;45711;50.108;13.712;2022-09-14T07:46:44;96938.31;;;17.08;91.02
59831;BME280;45711;50.108;13.712;2022-09-14T07:49:10;96931.97;;;17.16;91.97
59831;BME280;45711;50.108;13.712;2022-09-14T07:51:38;96930.22;;;17.24;90.65
59831;BME280;45711;50.108;13.712;2022-09-14T07:54:08;96916.31;;;16.94;90.94
59831;BME280;45711;50.108;13.712;2022-09-14T07:56:35;96930.38;;;17.15;90.89
59831;BME280;45711;50.108;13.712;2022-09-14T07:59:01;96923.50;;;17.18;91.64
59831;BME280;45711;50.108;13.712;2022-09-14T08:01:28;96923.72;;;17.41;91.87
59831;BME280;45711;50.108;13.712;2022-09-14T08:03:55;96929.41;;;17.36;89.58
59831;BME280;45711;50.108;13.712;2022-09-14T08:06:23;96922.53;;;17.38;90.58
59831;BME280;45711;50.108;13.712;2022-09-14T08:08:52;96918.94;;;17.34;90.93
59831;BME280;45711;50.108;13.712;2022-09-14T08:11:20;96913.63;;;17.38;90.90
59831;BME280;45711;50.108;13.712;2022-09-14T08:13:49;96917.53;;;17.40;90.84
59831;BME280;45711;50.108;13.712;2022-09-14T08:16:16;96926.63;;;17.48;91.71
59831;BME280;45711;50.108;13.712;2022-09-14T08:18:43;96913.63;;;17.53;91.68
59831;BME280;45711;50.108;13.712;2022-09-14T08:21:11;96900.28;;;17.61;91.03
59831;BME280;45711;50.108;13.712;2022-09-14T08:23:38;96912.34;;;17.63;90.80
59831;BME280;45711;50.108;13.712;2022-09-14T08:26:10;96907.09;;;17.70;91.58
59831;BME280;45711;50.108;13.712;2022-09-14T08:28:36;96907.72;;;17.79;91.67
59831;BME280;45711;50.108;13.712;2022-09-14T08:31:05;96905.94;;;17.71;89.78
59831;BME280;45711;50.108;13.712;2022-09-14T08:33:31;96899.50;;;17.60;90.32
59831;BME280;45711;50.108;13.712;2022-09-14T08:35:57;96900.47;;;17.68;89.60
59831;BME280;45711;50.108;13.712;2022-09-14T08:38:23;96901.44;;;17.59;90.46
59831;BME280;45711;50.108;13.712;2022-09-14T08:40:48;96906.22;;;17.66;90.59
59831;BME280;45711;50.108;13.712;2022-09-14T08:43:18;96906.06;;;17.75;92.04
59831;BME280;45711;50.108;13.712;2022-09-14T08:45:44;96909.56;;;17.59;91.89
59831;BME280;45711;50.108;13.712;2022-09-14T08:48:18;96910.03;;;17.49;91.64
59831;BME280;45711;50.108;13.712;2022-09-14T08:50:46;96898.28;;;17.57;91.62
59831;BME280;45711;50.108;13.712;2022-09-14T08:53:13;96901.59;;;17.67;89.44
59831;BME280;45711;50.108;13.712;2022-09-14T08:55:41;96903.16;;;17.52;89.97
59831;BME280;45711;50.108;13.712;2022-09-14T08:58:18;96900.16;;;17.85;86.14
59831;BME280;45711;50.108;13.712;2022-09-14T09:00:51;96898.19;;;17.70;89.57
59831;BME280;45711;50.108;13.712;2022-09-14T09:03:48;96893.25;;;17.88;89.96
59831;BME280;45711;50.108;13.712;2022-09-14T09:06:23;96893.25;;;17.88;90.36
59831;BME280;45711;50.108;13.712;2022-09-14T09:08:56;96894.19;;;18.11;85.04
59831;BME280;45711;50.108;13.712;2022-09-14T09:11:26;96895.72;;;18.28;81.20
59831;BME280;45711;50.108;13.712;2022-09-14T09:13:58;96891.03;;;18.09;89.77
59831;BME280;45711;50.108;13.712;2022-09-14T09:16:24;96890.19;;;17.89;89.36
59831;BME280;45711;50.108;13.712;2022-09-14T09:18:56;96889.56;;;17.64;90.01
59831;BME280;45711;50.108;13.712;2022-09-14T09:21:26;96897.19;;;17.74;90.36
59831;BME280;45711;50.108;13.712;2022-09-14T09:23:54;96898.47;;;17.80;91.86
59831;BME280;45711;50.108;13.712;2022-09-14T09:26:31;96903.38;;;17.91;91.04
59831;BME280;45711;50.108;13.712;2022-09-14T09:29:07;96895.31;;;18.10;84.93
59831;BME280;45711;50.108;13.712;2022-09-14T09:31:34;96900.41;;;17.96;90.01
59831;BME280;45711;50.108;13.712;2022-09-14T09:34:01;96908.78;;;17.91;88.16
59831;BME280;45711;50.108;13.712;2022-09-14T09:36:32;96905.63;;;17.89;88.24
59831;BME280;45711;50.108;13.712;2022-09-14T09:38:59;96908.00;;;17.74;90.88
59831;BME280;45711;50.108;13.712;2022-09-14T09:41:27;96903.88;;;17.80;88.01
59831;BME280;45711;50.108;13.712;2022-09-14T09:43:59;96902.50;;;17.87;89.44
59831;BME280;45711;50.108;13.712;2022-09-14T09:46:26;96907.41;;;17.81;90.28
59831;BME280;45711;50.108;13.712;2022-09-14T09:48:52;96898.13;;;17.98;85.74
59831;BME280;45711;50.108;13.712;2022-09-14T09:51:27;96906.41;;;18.05;82.23
59831;BME280;45711;50.108;13.712;2022-09-14T09:53:57;96904.50;;;18.05;86.18
59831;BME280;45711;50.108;13.712;2022-09-14T09:56:27;96898.75;;;17.75;89.04
59831;BME280;45711;50.108;13.712;2022-09-14T09:58:56;96910.53;;;17.83;89.71
59831;BME280;45711;50.108;13.712;2022-09-14T10:01:26;96906.41;;;18.05;85.12
59831;BME280;45711;50.108;13.712;2022-09-14T10:04:04;96906.75;;;17.72;89.67
59831;BME280;45711;50.108;13.712;2022-09-14T10:06:30;96898.38;;;17.61;91.41
59831;BME280;45711;50.108;13.712;2022-09-14T10:08:57;96894.53;;;17.62;91.86
59831;BME280;45711;50.108;13.712;2022-09-14T10:11:31;96905.75;;;17.76;89.42
59831;BME280;45711;50.108;13.712;2022-09-14T10:13:58;96909.94;;;17.74;91.54
59831;BME280;45711;50.108;13.712;2022-09-14T10:16:29;96910.16;;;17.69;88.72
59831;BME280;45711;50.108;13.712;2022-09-14T10:18:57;96905.38;;;17.78;91.87
59831;BME280;45711;50.108;13.712;2022-09-14T10:21:24;96900.13;;;17.69;88.14
59831;BME280;45711;50.108;13.712;2022-09-14T10:24:03;96894.56;;;17.94;88.38
59831;BME280;45711;50.108;13.712;2022-09-14T10:26:32;96904.75;;;17.69;90.96
59831;BME280;45711;50.108;13.712;2022-09-14T10:29:27;96903.00;;;17.92;89.96
59831;BME280;45711;50.108;13.712;2022-09-14T10:32:00;96906.00;;;17.87;88.34
59831;BME280;45711;50.108;13.712;2022-09-14T10:34:29;96896.91;;;18.11;89.63
59831;BME280;45711;50.108;13.712;2022-09-14T10:37:04;96896.81;;;17.92;89.71
59831;BME280;45711;50.108;13.712;2022-09-14T10:39:38;96894.88;;;18.08;90.40
59831;BME280;45711;50.108;13.712;2022-09-14T10:42:12;96892.59;;;17.63;90.56
59831;BME280;45711;50.108;13.712;2022-09-14T10:44:59;96887.38;;;17.70;89.62
59831;BME280;45711;50.108;13.712;2022-09-14T10:47:44;96888.06;;;18.14;83.54
59831;BME280;45711;50.108;13.712;2022-09-14T10:50:35;96885.25;;;18.11;89.58
59831;BME280;45711;50.108;13.712;2022-09-14T10:53:15;96880.59;;;17.92;89.90
59831;BME280;45711;50.108;13.712;2022-09-14T10:55:51;96881.06;;;18.13;88.07
59831;BME280;45711;50.108;13.712;2022-09-14T10:58:29;96887.59;;;18.28;89.99
59831;BME280;45711;50.108;13.712;2022-09-14T11:01:07;96881.38;;;18.27;89.34
59831;BME280;45711;50.108;13.712;2022-09-14T11:03:50;96878.13;;;18.02;91.26
59831;BME280;45711;50.108;13.712;2022-09-14T11:06:28;96864.41;;;18.11;90.03
59831;BME280;45711;50.108;13.712;2022-09-14T11:08:59;96857.78;;;18.28;91.13
59831;BME280;45711;50.108;13.712;2022-09-14T11:11:36;96854.22;;;18.59;80.38
59831;BME280;45711;50.108;13.712;2022-09-14T11:14:24;96850.06;;;18.65;84.16
59831;BME280;45711;50.108;13.712;2022-09-14T11:17:07;96849.72;;;18.47;86.83
59831;BME280;45711;50.108;13.712;2022-09-14T11:19:44;96849.50;;;18.56;86.32
59831;BME280;45711;50.108;13.712;2022-09-14T11:22:19;96850.44;;;18.64;81.41
59831;BME280;45711;50.108;13.712;2022-09-14T11:24:47;96858.09;;;18.77;83.95
59831;BME280;45711;50.108;13.712;2022-09-14T11:27:20;96852.94;;;18.92;79.06
59831;BME280;45711;50.108;13.712;2022-09-14T11:29:50;96850.78;;;19.01;76.78
59831;BME280;45711;50.108;13.712;2022-09-14T11:32:21;96852.34;;;19.02;84.17
59831;BME280;45711;50.108;13.712;2022-09-14T11:34:53;96848.34;;;18.57;85.36
59831;BME280;45711;50.108;13.712;2022-09-14T11:37:28;96843.72;;;18.38;88.90
59831;BME280;45711;50.108;13.712;2022-09-14T11:40:02;96842.19;;;18.21;88.73
59831;BME280;45711;50.108;13.712;2022-09-14T11:42:33;96842.97;;;18.22;87.59
59831;BME280;45711;50.108;13.712;2022-09-14T11:45:04;96843.00;;;18.61;88.52
59831;BME280;45711;50.108;13.712;2022-09-14T11:47:36;96840.38;;;18.83;80.56
59831;BME280;45711;50.108;13.712;2022-09-14T11:50:14;96835.19;;;18.94;78.81
59831;BME280;45711;50.108;13.712;2022-09-14T11:52:41;96835.53;;;18.93;79.75
59831;BME280;45711;50.108;13.712;2022-09-14T11:55:09;96836.53;;;19.04;80.47
59831;BME280;45711;50.108;13.712;2022-09-14T11:57:35;96828.41;;;18.84;84.81
59831;BME280;45711;50.108;13.712;2022-09-14T12:00:02;96820.34;;;18.69;86.28
59831;BME280;45711;50.108;13.712;2022-09-14T12:02:59;96812.38;;;18.76;78.49
59831;BME280;45711;50.108;13.712;2022-09-14T12:05:34;96810.00;;;18.94;79.19
59831;BME280;45711;50.108;13.712;2022-09-14T12:08:03;96813.03;;;18.69;85.88
59831;BME280;45711;50.108;13.712;2022-09-14T12:10:29;96810.56;;;18.64;86.58
59831;BME280;45711;50.108;13.712;2022-09-14T12:12:56;96808.94;;;18.59;81.42
59831;BME280;45711;50.108;13.712;2022-09-14T12:15:33;96810.09;;;18.78;85.35
59831;BME280;45711;50.108;13.712;2022-09-14T12:18:20;96804.00;;;18.84;84.58
59831;BME280;45711;50.108;13.712;2022-09-14T12:20:48;96789.38;;;18.89;79.44
59831;BME280;45711;50.108;13.712;2022-09-14T12:23:29;96794.56;;;18.98;78.45
59831;BME280;45711;50.108;13.712;2022-09-14T12:26:23;96793.16;;;19.04;76.98
59831;BME280;45711;50.108;13.712;2022-09-14T12:28:52;96799.34;;;19.04;84.06
59831;BME280;45711;50.108;13.712;2022-09-14T12:31:37;96799.75;;;19.06;82.17
59831;BME280;45711;50.108;13.712;2022-09-14T12:34:15;96809.59;;;19.15;78.25
59831;BME280;45711;50.108;13.712;2022-09-14T12:37:03;96803.91;;;19.00;83.82
59831;BME280;45711;50.108;13.712;2022-09-14T12:39:31;96801.38;;;18.88;79.11
59831;BME280;45711;50.108;13.712;2022-09-14T12:42:03;96793.25;;;18.88;79.05
59831;BME280;45711;50.108;13.712;2022-09-14T12:44:32;96785.72;;;19.01;86.78
59831;BME280;45711;50.108;13.712;2022-09-14T12:47:46;96784.13;;;18.77;88.17
59831;BME280;45711;50.108;13.712;2022-09-14T12:50:15;96789.50;;;18.73;86.39
59831;BME280;45711;50.108;13.712;2022-09-14T12:52:49;96784.63;;;19.05;87.49
59831;BME280;45711;50.108;13.712;2022-09-14T12:55:39;96783.50;;;19.06;87.82
59831;BME280;45711;50.108;13.712;2022-09-14T12:58:15;96790.44;;;19.04;87.06
59831;BME280;45711;50.108;13.712;2022-09-14T13:00:49;96793.63;;;19.09;87.10
59831;BME280;45711;50.108;13.712;2022-09-14T13:06:19;96772.16;;;19.24;81.06
59831;BME280;45711;50.108;13.712;2022-09-14T13:08:49;96766.03;;;19.27;87.09
59831;BME280;45711;50.108;13.712;2022-09-14T13:11:22;96768.56;;;19.16;84.99